ダルエスサラーム の空港の天気 - METARとTAF

ジュリウス・ニエレレ国際空港(ダルエスサラーム) ( HTDA / DAR ) - タンザニア ダルエスサラーム
飛行場実況気象(Metar)
観測時間05/28 12:00 EAT (05/28 09:00 UTC)
風向・風速南 9m/s
視程10km以上
天気現象
少しの雲 雲底高度 1070m
気温30℃
湿度52%
気圧1016hPa
METARHTDA 280900Z 19017KT 9999 FEW035 30/19 Q1016 NOSIG
過去の天気等 Google飛行場航空写真 Wunderground天気予報

過去48時間のMETAR

飛行場予報(TAF)
発表時間: 5/28 08:00 EAT (5/28 05:00 UTC)
予報対象時間: 28日9時 EAT ~ 29日15時 EAT
風向・風速南南西 3m/s
視程10km以上
全天の4割程度の雲 雲底高度 670m
28日12時 EAT ~ 28日15時 EAT に徐々に
風向・風速南 8m/s
28日20時 EAT ~ 28日23時 EAT に徐々に
風向・風速南南東 3m/s
HTDA 280500Z 2806/2912 21005KT 9999 SCT022
BECMG 2809/2812 17015KT
BECMG 2817/2820 15005KT